Time;durP1;ratioP1;P1;durP2;ratioP2;P2;SDS_P1;SDS_P2;PMS_P1;PMS_P2;Temp;Humidity;BMP_temperature;BMP_pressure;BME280_temperature;BME280_humidity;BME280_pressure;Samples;Min_cycle;Max_cycle;Signal;HPM_P1;HPM_P2
2022/07/31 00:01:35;;;;;;;6.97;4.45;;;10.80;99.90;;;;;;5040675;28;20194;-82
2022/07/31 00:04:08;;;;;;;6.93;4.10;;;10.90;99.90;;;;;;5036814;28;20226;-79
2022/07/31 00:06:40;;;;;;;9.55;4.60;;;11.00;99.90;;;;;;5055394;28;20229;-83
2022/07/31 00:09:10;;;;;;;9.45;3.78;;;11.20;99.90;;;;;;5052258;28;20285;-80
2022/07/31 00:11:42;;;;;;;7.00;3.60;;;11.30;99.90;;;;;;5016755;28;20194;-75
2022/07/31 00:14:13;;;;;;;8.38;3.70;;;11.40;99.90;;;;;;5015339;28;20196;-72
2022/07/31 00:16:44;;;;;;;7.53;3.25;;;11.50;99.90;;;;;;5025868;28;20204;-72
2022/07/31 00:19:16;;;;;;;6.38;3.03;;;11.60;99.90;;;;;;5055035;28;20240;-73
2022/07/31 00:21:47;;;;;;;5.85;2.90;;;11.70;99.90;;;;;;5054966;28;20276;-73
2022/07/31 00:24:17;;;;;;;6.03;3.10;;;11.70;99.90;;;;;;5054853;28;20560;-72
2022/07/31 00:26:48;;;;;;;4.20;2.40;;;11.80;99.90;;;;;;5054036;28;20225;-73
2022/07/31 00:29:19;;;;;;;4.85;2.40;;;11.90;99.90;;;;;;5052553;28;20217;-72
2022/07/31 00:31:50;;;;;;;6.65;2.55;;;12.00;99.90;;;;;;5044474;28;20193;-72
2022/07/31 00:34:22;;;;;;;5.03;2.30;;;12.10;99.90;;;;;;5054820;28;20194;-72
2022/07/31 00:36:53;;;;;;;4.10;2.30;;;12.20;99.90;;;;;;5036519;28;20201;-72
2022/07/31 00:39:24;;;;;;;5.53;2.15;;;12.40;99.90;;;;;;5034886;28;20194;-72
2022/07/31 00:41:55;;;;;;;4.72;1.75;;;12.50;99.90;;;;;;5034781;28;20230;-71
2022/07/31 00:44:25;;;;;;;5.50;1.83;;;12.60;99.90;;;;;;5034405;28;20282;-72
2022/07/31 00:46:56;;;;;;;4.72;1.50;;;12.70;99.90;;;;;;5034927;28;20221;-71
2022/07/31 00:49:29;;;;;;;3.75;1.80;;;12.80;99.90;;;;;;5054405;28;20194;-72
2022/07/31 00:52:00;;;;;;;3.50;1.40;;;13.00;99.90;;;;;;5054435;28;20664;-72
2022/07/31 00:54:30;;;;;;;3.00;1.30;;;13.10;99.90;;;;;;5054336;28;20190;-74
2022/07/31 00:57:01;;;;;;;3.63;1.23;;;13.20;99.90;;;;;;5054423;28;20664;-72
2022/07/31 00:59:32;;;;;;;5.97;1.40;;;13.40;99.90;;;;;;5054134;28;20276;-73
2022/07/31 01:02:03;;;;;;;2.35;1.02;;;13.60;99.90;;;;;;5035701;28;20630;-72
2022/07/31 01:04:35;;;;;;;3.28;1.20;;;13.80;99.90;;;;;;5034267;28;20190;-72
2022/07/31 01:07:06;;;;;;;2.45;1.10;;;13.90;99.90;;;;;;5034017;28;20221;-71
2022/07/31 01:09:37;;;;;;;4.28;1.17;;;14.10;99.90;;;;;;5034180;28;20197;-73
2022/07/31 01:12:14;;;;;;;3.40;1.10;;;14.20;99.90;;;;;;5034203;28;20186;-72
2022/07/31 01:14:49;;;;;;;4.72;2.53;;;14.40;99.90;;;;;;5033841;28;20204;-71
2022/07/31 01:17:22;;;;;;;5.68;1.58;;;14.60;99.90;;;;;;5034413;28;20209;-73
2022/07/31 01:19:55;;;;;;;4.45;1.20;;;14.80;99.90;;;;;;5034013;28;20226;-74
2022/07/31 01:22:42;;;;;;;1.95;1.00;;;15.10;99.90;;;;;;5034049;28;20201;-74
2022/07/31 01:25:18;;;;;;;3.42;0.90;;;15.10;99.90;;;;;;5048963;28;20194;-72
2022/07/31 01:28:01;;;;;;;3.00;1.23;;;15.20;99.90;;;;;;5053564;28;20221;-72
2022/07/31 01:30:37;;;;;;;2.40;1.20;;;15.40;99.90;;;;;;5039251;28;20885;-72
2022/07/31 01:33:11;;;;;;;2.25;1.00;;;15.50;99.90;;;;;;5014031;28;20198;-72
2022/07/31 01:35:46;;;;;;;3.85;1.23;;;15.70;99.90;;;;;;5030880;28;20190;-75
2022/07/31 01:38:21;;;;;;;1.70;1.08;;;15.80;99.90;;;;;;5043585;28;20240;-74
2022/07/31 01:40:58;;;;;;;2.65;1.15;;;16.00;99.90;;;;;;5033398;28;20190;-74
2022/07/31 01:46:24;;;;;;;2.00;0.88;;;16.10;99.90;;;;;;5033427;28;20232;-73
2022/07/31 01:48:57;;;;;;;1.60;0.90;;;16.10;99.90;;;;;;5050402;28;20195;-74
2022/07/31 01:51:29;;;;;;;2.90;1.00;;;16.30;99.90;;;;;;5053349;28;20201;-73
2022/07/31 01:54:02;;;;;;;3.13;1.20;;;16.30;99.90;;;;;;5044905;28;20209;-72
2022/07/31 01:56:34;;;;;;;1.63;1.10;;;16.40;99.90;;;;;;5033136;28;20195;-78
2022/07/31 01:59:06;;;;;;;2.75;1.00;;;16.40;99.90;;;;;;5033235;28;20843;-74
2022/07/31 02:01:41;;;;;;;2.13;1.10;;;16.50;99.90;;;;;;5033204;28;20190;-75
2022/07/31 02:04:12;;;;;;;1.70;0.98;;;16.60;99.90;;;;;;5033115;28;20193;-77
2022/07/31 02:06:44;;;;;;;1.80;1.10;;;16.60;99.90;;;;;;5033106;28;20262;-73
2022/07/31 02:09:15;;;;;;;1.95;0.98;;;16.50;99.90;;;;;;5032655;28;20217;-73
2022/07/31 02:11:47;;;;;;;3.30;1.17;;;16.80;99.90;;;;;;5032872;28;20563;-79
2022/07/31 02:14:21;;;;;;;2.33;1.10;;;16.90;99.90;;;;;;5033250;28;20194;-73
2022/07/31 02:16:54;;;;;;;2.88;1.25;;;17.10;99.90;;;;;;5032975;28;20271;-74
2022/07/31 02:19:26;;;;;;;2.55;1.45;;;17.20;99.90;;;;;;5032978;28;20634;-75
2022/07/31 02:21:56;;;;;;;3.55;1.23;;;17.30;99.90;;;;;;5032865;28;20197;-73
2022/07/31 02:24:27;;;;;;;1.65;1.30;;;17.30;99.90;;;;;;5041812;28;20190;-73
2022/07/31 02:26:59;;;;;;;2.30;1.40;;;17.40;99.90;;;;;;5052504;28;20218;-74
2022/07/31 02:29:32;;;;;;;2.33;1.50;;;17.40;99.90;;;;;;5048205;28;20221;-74
2022/07/31 02:32:06;;;;;;;2.08;1.20;;;17.40;99.90;;;;;;5043225;28;20544;-74
2022/07/31 02:34:37;;;;;;;2.08;1.50;;;17.50;99.90;;;;;;5050260;28;20197;-72
2022/07/31 02:37:09;;;;;;;2.70;1.30;;;17.50;99.90;;;;;;5047069;28;20218;-74
2022/07/31 02:39:41;;;;;;;1.63;1.17;;;17.70;99.90;;;;;;5032521;28;20190;-76
2022/07/31 02:42:12;;;;;;;3.78;1.30;;;17.70;99.90;;;;;;5032722;28;20218;-74
2022/07/31 02:44:43;;;;;;;2.33;1.30;;;17.80;99.90;;;;;;5032563;28;20198;-73
2022/07/31 02:47:17;;;;;;;1.63;1.20;;;17.90;99.90;;;;;;5032639;28;20233;-73
2022/07/31 02:49:48;;;;;;;2.60;1.35;;;17.90;99.90;;;;;;5041236;28;20557;-76
2022/07/31 02:52:23;;;;;;;2.10;1.23;;;17.90;99.90;;;;;;5050227;28;20189;-80
2022/07/31 02:54:55;;;;;;;3.83;1.30;;;17.90;99.90;;;;;;5031343;28;20202;-81
2022/07/31 02:57:25;;;;;;;2.13;1.05;;;17.70;99.90;;;;;;5026878;28;20198;-80
2022/07/31 02:59:59;;;;;;;1.40;0.93;;;17.60;99.90;;;;;;5029349;28;20194;-79
2022/07/31 03:02:32;;;;;;;3.38;1.33;;;17.60;99.90;;;;;;5030959;28;20201;-83
2022/07/31 03:05:02;;;;;;;1.73;0.90;;;17.50;99.90;;;;;;5030410;28;20722;-83
2022/07/31 03:07:33;;;;;;;2.15;1.10;;;17.40;99.90;;;;;;5024996;28;20352;-82
2022/07/31 03:10:04;;;;;;;2.97;1.23;;;17.50;99.90;;;;;;5026160;28;20202;-83
2022/07/31 03:12:35;;;;;;;1.77;1.00;;;17.40;99.90;;;;;;5031242;28;20205;-79
2022/07/31 03:15:07;;;;;;;2.60;1.20;;;17.50;99.90;;;;;;5030395;28;20198;-79
2022/07/31 03:17:41;;;;;;;1.75;1.20;;;17.50;99.90;;;;;;5032298;28;20195;-79
2022/07/31 03:20:13;;;;;;;5.40;1.92;;;17.40;99.90;;;;;;5024223;28;20244;-83
2022/07/31 03:22:45;;;;;;;2.08;1.10;;;17.40;99.90;;;;;;5023440;28;20209;-81
2022/07/31 03:25:16;;;;;;;1.80;1.20;;;17.30;99.90;;;;;;5022167;28;20202;-83
2022/07/31 03:27:48;;;;;;;2.95;1.05;;;17.40;99.90;;;;;;5027757;28;20226;-82
2022/07/31 03:30:23;;;;;;;2.05;1.10;;;17.40;99.90;;;;;;5026498;28;20225;-78
2022/07/31 03:32:57;;;;;;;1.58;1.10;;;17.50;99.90;;;;;;5030141;28;20308;-82
2022/07/31 03:35:28;;;;;;;3.70;1.33;;;17.50;99.90;;;;;;5032059;28;20195;-79
2022/07/31 03:37:59;;;;;;;2.63;1.25;;;17.60;99.90;;;;;;5023314;28;20233;-82
2022/07/31 03:40:30;;;;;;;2.50;1.50;;;17.60;99.90;;;;;;5024825;28;20207;-80
2022/07/31 03:43:02;;;;;;;4.75;1.27;;;17.60;99.90;;;;;;5021393;28;20569;-80
2022/07/31 03:45:34;;;;;;;3.72;1.17;;;17.60;99.90;;;;;;5023334;28;20203;-77
2022/07/31 03:48:08;;;;;;;2.47;0.90;;;17.60;99.90;;;;;;5029580;28;20221;-79
2022/07/31 03:50:39;;;;;;;2.78;1.10;;;17.60;99.90;;;;;;5029859;28;20210;-79
2022/07/31 03:53:11;;;;;;;3.42;1.00;;;17.60;99.90;;;;;;5024302;28;20202;-80
2022/07/31 03:55:43;;;;;;;2.50;1.00;;;17.50;99.90;;;;;;5031914;28;20561;-77
2022/07/31 03:58:14;;;;;;;1.92;1.00;;;17.60;99.90;;;;;;5031887;28;20232;-79
2022/07/31 04:00:47;;;;;;;1.48;0.80;;;17.50;99.90;;;;;;5031167;28;20670;-80
2022/07/31 04:03:19;;;;;;;1.35;0.90;;;17.60;99.90;;;;;;5029281;28;20191;-80
2022/07/31 04:05:50;;;;;;;1.42;1.20;;;17.70;99.90;;;;;;5034795;28;20198;-80
2022/07/31 04:08:21;;;;;;;3.08;1.10;;;17.70;99.90;;;;;;5034929;28;20214;-78
2022/07/31 04:10:51;;;;;;;3.42;1.00;;;17.70;99.90;;;;;;5035060;28;20190;-82
2022/07/31 04:13:22;;;;;;;5.40;1.75;;;17.70;99.90;;;;;;5035144;28;20202;-79
2022/07/31 04:15:53;;;;;;;2.47;0.95;;;17.70;99.90;;;;;;5035078;28;20209;-77
2022/07/31 04:18:26;;;;;;;2.22;1.00;;;17.60;99.90;;;;;;5035302;28;20195;-79
2022/07/31 04:20:56;;;;;;;3.33;1.02;;;17.60;99.90;;;;;;5034801;28;20592;-80
2022/07/31 04:23:27;;;;;;;1.52;0.93;;;17.50;99.90;;;;;;5035112;28;20638;-79
2022/07/31 04:25:57;;;;;;;2.05;1.02;;;17.50;99.90;;;;;;5035096;28;20582;-79
2022/07/31 04:28:28;;;;;;;0.80;0.80;;;17.40;99.90;;;;;;5035956;28;20233;-79
2022/07/31 04:30:59;;;;;;;1.77;0.90;;;17.40;99.90;;;;;;5039394;28;20191;-79
2022/07/31 04:33:31;;;;;;;2.97;1.10;;;17.30;99.90;;;;;;5026427;28;20199;-77
2022/07/31 04:36:02;;;;;;;1.88;0.98;;;17.20;99.90;;;;;;5014873;28;20199;-80
2022/07/31 04:38:33;;;;;;;2.92;1.10;;;17.20;99.90;;;;;;5014758;28;20353;-79
2022/07/31 04:41:03;;;;;;;1.85;1.13;;;17.20;99.90;;;;;;5026530;28;20197;-79
2022/07/31 04:43:34;;;;;;;1.33;0.80;;;17.20;99.90;;;;;;5034383;28;20195;-79
2022/07/31 04:46:05;;;;;;;3.00;0.90;;;17.20;99.90;;;;;;5034293;28;20229;-78
2022/07/31 04:48:38;;;;;;;1.98;1.00;;;17.20;99.90;;;;;;5035679;28;20260;-78
2022/07/31 04:51:08;;;;;;;1.08;0.90;;;17.10;99.90;;;;;;5026528;28;20195;-77
2022/07/31 04:53:39;;;;;;;1.17;0.80;;;17.20;99.90;;;;;;5033726;28;20202;-76
2022/07/31 04:58:56;;;;;;;2.92;1.02;;;17.10;99.90;;;;;;5023268;28;20307;-80
2022/07/31 05:01:27;;;;;;;1.83;1.13;;;17.10;99.90;;;;;;5028455;28;20209;-73
2022/07/31 05:04:00;;;;;;;3.40;1.23;;;17.00;99.90;;;;;;5033556;28;20205;-73
2022/07/31 05:06:40;;;;;;;1.88;0.80;;;17.00;99.90;;;;;;5044777;28;20653;-75
2022/07/31 05:09:13;;;;;;;2.20;0.98;;;17.00;99.90;;;;;;5053672;28;20577;-82
2022/07/31 05:11:45;;;;;;;2.63;0.93;;;17.00;99.90;;;;;;5042995;28;20195;-75
2022/07/31 05:14:17;;;;;;;1.02;0.90;;;16.90;99.90;;;;;;5033634;28;20206;-73
2022/07/31 05:16:48;;;;;;;3.97;1.00;;;16.90;99.90;;;;;;5033883;28;20252;-80
2022/07/31 05:19:20;;;;;;;3.17;1.10;;;16.90;99.90;;;;;;5032793;28;20201;-74
2022/07/31 05:21:51;;;;;;;3.15;1.00;;;16.90;99.90;;;;;;5032523;28;20194;-76
2022/07/31 05:24:22;;;;;;;1.67;0.95;;;16.90;99.90;;;;;;5033514;28;20204;-73
2022/07/31 05:26:52;;;;;;;2.85;0.90;;;16.80;99.90;;;;;;5033551;28;20543;-78
2022/07/31 05:29:23;;;;;;;2.05;0.95;;;16.80;99.90;;;;;;5039766;28;20217;-79
2022/07/31 05:31:54;;;;;;;2.50;0.82;;;16.80;99.90;;;;;;5042952;28;20617;-76
2022/07/31 05:34:28;;;;;;;1.80;0.90;;;16.80;99.90;;;;;;5041105;28;20232;-79
2022/07/31 05:36:59;;;;;;;4.05;1.10;;;16.80;99.90;;;;;;5031268;28;20194;-75
2022/07/31 05:39:30;;;;;;;1.75;0.93;;;16.70;99.90;;;;;;5041820;28;20194;-73
2022/07/31 05:42:01;;;;;;;1.73;0.88;;;16.70;99.90;;;;;;5045871;28;20224;-73
2022/07/31 05:44:31;;;;;;;2.00;0.90;;;16.70;99.90;;;;;;5034738;28;20642;-74
2022/07/31 05:47:02;;;;;;;1.92;0.98;;;16.60;99.90;;;;;;5042801;28;20192;-76
2022/07/31 05:49:35;;;;;;;2.22;1.20;;;16.70;99.90;;;;;;5028650;28;20202;-74
2022/07/31 05:52:05;;;;;;;2.72;1.00;;;16.60;99.90;;;;;;5038983;28;20601;-76
2022/07/31 05:54:36;;;;;;;2.60;1.17;;;16.50;99.90;;;;;;5038570;28;20198;-75
2022/07/31 05:57:07;;;;;;;1.58;0.90;;;16.50;99.90;;;;;;5032971;28;20209;-76
2022/07/31 05:59:38;;;;;;;3.40;1.10;;;16.50;99.90;;;;;;5043206;28;20641;-73
2022/07/31 06:02:09;;;;;;;2.63;1.08;;;16.40;99.90;;;;;;5033083;28;20194;-74
2022/07/31 06:04:41;;;;;;;1.90;1.00;;;16.40;99.90;;;;;;5032745;28;20194;-77
2022/07/31 06:07:12;;;;;;;2.63;1.13;;;16.30;99.90;;;;;;5032837;28;20200;-73
2022/07/31 06:09:42;;;;;;;2.83;1.25;;;16.30;99.90;;;;;;5043362;28;20194;-78
2022/07/31 06:12:13;;;;;;;3.55;1.10;;;16.30;99.90;;;;;;5029236;28;20554;-77
2022/07/31 06:14:44;;;;;;;2.85;1.10;;;16.20;99.90;;;;;;5022918;28;20657;-73
2022/07/31 06:17:14;;;;;;;2.42;0.95;;;16.20;99.90;;;;;;5044688;28;20652;-75
2022/07/31 06:19:47;;;;;;;1.35;0.93;;;16.10;99.90;;;;;;5034229;28;20202;-72
2022/07/31 06:22:18;;;;;;;2.92;0.90;;;16.10;99.90;;;;;;5032529;28;20289;-73
2022/07/31 06:24:49;;;;;;;1.95;1.00;;;16.10;99.90;;;;;;5032250;28;20194;-73
2022/07/31 06:27:21;;;;;;;1.85;0.98;;;16.00;99.90;;;;;;5040437;28;20185;-73
2022/07/31 06:29:51;;;;;;;2.80;1.00;;;16.00;99.90;;;;;;5034070;28;20562;-74
2022/07/31 06:32:22;;;;;;;2.38;0.90;;;15.90;99.90;;;;;;5036491;28;20221;-74
2022/07/31 06:34:55;;;;;;;1.85;0.90;;;15.80;99.90;;;;;;5038826;28;20194;-73
2022/07/31 06:37:25;;;;;;;1.40;1.00;;;15.80;99.90;;;;;;5045184;28;20225;-74
2022/07/31 06:39:56;;;;;;;2.33;1.00;;;15.80;99.90;;;;;;5035771;28;20696;-74
2022/07/31 06:42:27;;;;;;;3.88;1.13;;;15.80;99.90;;;;;;5038176;28;20194;-73
2022/07/31 06:44:58;;;;;;;2.63;0.80;;;15.70;99.90;;;;;;5038186;28;20206;-74
2022/07/31 06:47:29;;;;;;;1.35;0.90;;;15.70;99.90;;;;;;5031816;28;20191;-73
2022/07/31 06:50:01;;;;;;;3.65;1.10;;;15.60;99.90;;;;;;5044584;28;20202;-79
2022/07/31 06:52:32;;;;;;;3.60;1.20;;;15.60;99.90;;;;;;5031690;28;20182;-74
2022/07/31 06:55:03;;;;;;;3.42;1.00;;;15.60;99.90;;;;;;5036377;28;20186;-75
2022/07/31 06:57:33;;;;;;;2.53;1.20;;;15.50;99.90;;;;;;5029929;28;20209;-73
2022/07/31 07:00:04;;;;;;;2.63;1.30;;;15.50;99.90;;;;;;5036202;28;20646;-73
2022/07/31 07:02:35;;;;;;;2.83;1.40;;;15.50;99.90;;;;;;5027777;28;20198;-73
2022/07/31 07:05:08;;;;;;;3.20;1.58;;;15.40;99.90;;;;;;5032025;28;20194;-74
2022/07/31 07:07:39;;;;;;;3.03;1.30;;;15.30;99.90;;;;;;5031741;28;20654;-80
2022/07/31 07:10:10;;;;;;;2.25;1.30;;;15.30;99.90;;;;;;5033080;28;20198;-73
2022/07/31 07:12:40;;;;;;;1.85;1.30;;;15.30;99.90;;;;;;5043334;28;20556;-73
2022/07/31 07:15:12;;;;;;;2.85;1.40;;;15.20;99.90;;;;;;5044408;28;20197;-73
2022/07/31 07:17:42;;;;;;;3.00;1.35;;;15.20;99.90;;;;;;5043272;28;20205;-73
2022/07/31 07:20:15;;;;;;;5.80;1.73;;;15.20;99.90;;;;;;5032527;28;20224;-72
2022/07/31 07:22:46;;;;;;;2.92;1.45;;;15.20;99.90;;;;;;5032339;28;20278;-73
2022/07/31 07:25:19;;;;;;;4.53;1.60;;;15.10;99.90;;;;;;5032000;28;20209;-74
2022/07/31 07:27:49;;;;;;;3.40;1.67;;;15.10;99.90;;;;;;5031818;28;20218;-73
2022/07/31 07:30:20;;;;;;;3.70;1.90;;;15.00;99.90;;;;;;5045266;28;20254;-73
2022/07/31 07:32:51;;;;;;;4.80;1.70;;;15.00;99.90;;;;;;5040547;28;20200;-72
2022/07/31 07:35:27;;;;;;;3.00;1.60;;;15.00;99.90;;;;;;5036857;28;20195;-74
2022/07/31 07:37:58;;;;;;;2.65;1.60;;;14.90;99.90;;;;;;5035493;28;20736;-72
2022/07/31 07:40:29;;;;;;;5.30;1.30;;;14.90;99.90;;;;;;5040007;28;20201;-73
2022/07/31 07:42:59;;;;;;;3.35;1.60;;;15.00;99.90;;;;;;5037149;28;20194;-81
2022/07/31 07:45:30;;;;;;;2.75;1.60;;;14.90;99.90;;;;;;5036356;28;20221;-78
2022/07/31 07:48:01;;;;;;;2.75;1.52;;;14.90;99.90;;;;;;5034522;28;20232;-80
2022/07/31 07:50:33;;;;;;;2.83;1.50;;;14.90;99.90;;;;;;5039501;28;20205;-80
2022/07/31 07:53:04;;;;;;;3.17;1.52;;;14.90;99.90;;;;;;5039647;28;20555;-79
2022/07/31 07:55:35;;;;;;;3.63;1.80;;;14.90;99.90;;;;;;5034885;28;20191;-81
2022/07/31 07:58:06;;;;;;;2.58;1.67;;;14.90;99.90;;;;;;5039129;28;20202;-80
2022/07/31 08:00:36;;;;;;;3.67;1.80;;;14.90;99.90;;;;;;5041920;28;20278;-79
2022/07/31 08:03:07;;;;;;;4.40;1.92;;;14.90;99.90;;;;;;5040474;28;20661;-80
2022/07/31 08:05:40;;;;;;;2.90;1.63;;;14.90;99.90;;;;;;5035225;28;20688;-79
2022/07/31 08:08:10;;;;;;;2.80;1.80;;;14.90;99.90;;;;;;5034912;28;20218;-80
2022/07/31 08:10:42;;;;;;;4.00;1.80;;;14.80;99.90;;;;;;5035336;28;20191;-80
2022/07/31 08:13:12;;;;;;;4.97;2.22;;;14.70;99.90;;;;;;5035026;28;20312;-79
2022/07/31 08:15:43;;;;;;;2.90;1.70;;;14.70;99.90;;;;;;5033123;28;20210;-79
2022/07/31 08:18:14;;;;;;;2.70;2.00;;;14.60;99.90;;;;;;5034936;28;20680;-80
2022/07/31 08:20:46;;;;;;;2.55;1.73;;;14.50;99.90;;;;;;5034825;28;20665;-79
2022/07/31 08:23:17;;;;;;;3.88;1.90;;;14.50;99.90;;;;;;5033700;28;20203;-79
2022/07/31 08:25:47;;;;;;;3.05;2.03;;;14.40;99.90;;;;;;5034275;28;20206;-80
2022/07/31 08:28:18;;;;;;;3.88;2.42;;;14.40;99.90;;;;;;5035119;28;20307;-82
2022/07/31 08:30:49;;;;;;;3.97;2.30;;;14.40;99.90;;;;;;5050099;28;20204;-80
2022/07/31 08:33:19;;;;;;;5.28;2.50;;;14.40;99.90;;;;;;5031264;28;20225;-79
2022/07/31 08:35:52;;;;;;;3.38;2.20;;;14.40;99.90;;;;;;5034632;28;20198;-80
2022/07/31 08:38:23;;;;;;;3.95;2.13;;;14.40;99.90;;;;;;5032786;28;20576;-80
2022/07/31 08:40:55;;;;;;;6.70;2.60;;;14.40;99.90;;;;;;5026668;28;20213;-80
2022/07/31 08:43:26;;;;;;;3.83;2.30;;;14.30;99.90;;;;;;5034516;28;20191;-78
2022/07/31 08:45:57;;;;;;;4.25;2.53;;;14.30;99.90;;;;;;5034445;28;20190;-72
2022/07/31 08:48:29;;;;;;;4.65;2.60;;;14.30;99.90;;;;;;5037393;28;20237;-74
2022/07/31 08:51:04;;;;;;;4.85;2.83;;;14.30;99.90;;;;;;5034338;28;20190;-74
2022/07/31 08:53:38;;;;;;;4.93;2.90;;;14.30;99.90;;;;;;5034000;28;20232;-73
2022/07/31 08:56:09;;;;;;;5.25;2.75;;;14.30;99.90;;;;;;5034561;28;20276;-73
2022/07/31 08:58:40;;;;;;;4.53;2.80;;;14.30;99.90;;;;;;5034335;28;20198;-72
2022/07/31 09:01:13;;;;;;;4.53;2.67;;;14.30;99.90;;;;;;5032837;28;20206;-72
2022/07/31 09:03:44;;;;;;;9.23;3.38;;;14.30;99.90;;;;;;5033228;28;20195;-73
2022/07/31 09:06:16;;;;;;;9.35;3.97;;;14.40;99.90;;;;;;5033623;28;20191;-72
2022/07/31 09:08:47;;;;;;;5.10;3.15;;;14.40;99.90;;;;;;5033517;28;20256;-73
2022/07/31 09:11:18;;;;;;;7.55;3.08;;;14.40;99.90;;;;;;5033492;28;20194;-72
2022/07/31 09:13:56;;;;;;;4.68;2.17;;;14.40;99.90;;;;;;5033221;28;20201;-73
2022/07/31 09:16:27;;;;;;;3.90;2.40;;;14.40;99.90;;;;;;5033822;28;20190;-72
2022/07/31 09:18:59;;;;;;;2.88;1.90;;;14.40;99.90;;;;;;5034048;28;20194;-72
2022/07/31 09:21:41;;;;;;;3.25;2.10;;;14.50;99.90;;;;;;5033816;28;20202;-73
2022/07/31 09:24:12;;;;;;;2.33;1.75;;;14.50;99.90;;;;;;5032488;28;20190;-72
2022/07/31 09:26:43;;;;;;;2.90;1.80;;;14.50;99.90;;;;;;5016837;28;20201;-72
2022/07/31 09:29:14;;;;;;;3.28;1.90;;;14.50;99.90;;;;;;5030963;28;20221;-72
2022/07/31 09:31:44;;;;;;;4.57;1.63;;;14.50;99.90;;;;;;5038832;28;20194;-74
2022/07/31 09:34:15;;;;;;;2.80;1.80;;;14.40;99.90;;;;;;5033165;28;20580;-74
2022/07/31 09:36:48;;;;;;;3.22;1.83;;;14.40;99.90;;;;;;5033477;28;20190;-75
2022/07/31 09:39:18;;;;;;;3.40;2.00;;;14.40;99.90;;;;;;5033157;28;20256;-74
2022/07/31 09:41:53;;;;;;;5.68;2.60;;;14.30;99.90;;;;;;5033023;28;20201;-77
2022/07/31 09:44:24;;;;;;;6.03;2.72;;;14.30;99.90;;;;;;5014040;28;20198;-80
2022/07/31 09:46:55;;;;;;;4.03;2.60;;;14.30;99.90;;;;;;5027438;28;20661;-79
2022/07/31 09:49:33;;;;;;;4.45;2.35;;;14.20;99.90;;;;;;5032840;28;20600;-79
2022/07/31 09:52:06;;;;;;;3.83;2.03;;;14.20;99.90;;;;;;5031841;28;20190;-80
2022/07/31 09:54:37;;;;;;;3.38;1.90;;;14.20;99.90;;;;;;5032978;28;20601;-79
2022/07/31 09:57:14;;;;;;;4.53;1.70;;;14.20;99.90;;;;;;5013706;28;20638;-80
2022/07/31 09:59:45;;;;;;;2.58;1.60;;;14.20;99.90;;;;;;5012599;28;20195;-79
2022/07/31 10:02:18;;;;;;;4.90;1.80;;;14.20;99.90;;;;;;5013600;28;20238;-78
2022/07/31 10:04:49;;;;;;;3.78;1.73;;;14.20;99.90;;;;;;5025629;28;20194;-78
2022/07/31 10:07:25;;;;;;;4.32;1.90;;;14.20;99.90;;;;;;5033147;28;20190;-75
2022/07/31 10:09:57;;;;;;;2.67;1.40;;;14.10;99.90;;;;;;5032758;28;20716;-74
2022/07/31 10:12:30;;;;;;;2.83;1.63;;;14.10;99.90;;;;;;5032946;28;20202;-74
2022/07/31 10:15:05;;;;;;;3.28;1.50;;;14.10;99.90;;;;;;5033161;28;20201;-74
2022/07/31 10:17:38;;;;;;;2.70;1.50;;;14.10;99.90;;;;;;5033021;28;20190;-77
2022/07/31 10:20:10;;;;;;;1.83;1.50;;;14.10;99.90;;;;;;5033033;28;20257;-74
2022/07/31 10:22:47;;;;;;;2.58;1.58;;;14.00;99.90;;;;;;5032270;28;20565;-73
2022/07/31 10:25:22;;;;;;;2.30;1.60;;;14.00;99.90;;;;;;5032575;28;20197;-75
2022/07/31 10:27:55;;;;;;;2.80;1.52;;;14.00;99.90;;;;;;5013736;28;20194;-77
2022/07/31 10:30:27;;;;;;;3.45;1.77;;;13.90;99.90;;;;;;5039768;28;20213;-76
2022/07/31 10:32:58;;;;;;;2.50;1.42;;;13.90;99.90;;;;;;5052636;28;20186;-74
2022/07/31 10:35:29;;;;;;;2.33;1.70;;;13.90;99.90;;;;;;5040186;28;20244;-73
2022/07/31 10:38:07;;;;;;;4.15;1.70;;;13.90;99.90;;;;;;5032353;28;20244;-73
2022/07/31 10:40:44;;;;;;;4.13;1.67;;;13.90;99.90;;;;;;5030993;28;20206;-78
2022/07/31 10:43:20;;;;;;;2.17;1.60;;;13.80;99.90;;;;;;5032258;28;20201;-73
2022/07/31 10:45:52;;;;;;;3.20;1.60;;;13.80;99.90;;;;;;5032432;28;20229;-73
2022/07/31 10:48:24;;;;;;;2.83;1.48;;;13.80;99.90;;;;;;5032417;28;20277;-76
2022/07/31 10:51:04;;;;;;;3.42;1.92;;;13.80;99.90;;;;;;5032438;28;20209;-79
2022/07/31 10:53:37;;;;;;;5.60;1.65;;;13.70;99.90;;;;;;5032082;28;20554;-74
2022/07/31 10:56:11;;;;;;;2.47;1.70;;;13.80;99.90;;;;;;5032139;28;20194;-76
2022/07/31 10:58:51;;;;;;;5.45;1.98;;;13.80;99.90;;;;;;5032502;28;20282;-76
2022/07/31 11:01:22;;;;;;;4.05;1.60;;;13.80;99.90;;;;;;5032204;28;20194;-74
2022/07/31 11:04:00;;;;;;;3.33;1.60;;;13.80;99.90;;;;;;5032056;28;20259;-78
2022/07/31 11:06:40;;;;;;;3.35;1.55;;;13.80;99.90;;;;;;5032166;28;20193;-79
2022/07/31 11:09:24;;;;;;;3.95;1.85;;;13.80;99.90;;;;;;5031988;28;20654;-79
2022/07/31 11:11:55;;;;;;;3.38;1.48;;;13.80;99.90;;;;;;5033777;28;20562;-79
2022/07/31 11:14:37;;;;;;;2.30;2.10;;;13.80;99.90;;;;;;5036395;28;20194;-77
2022/07/31 11:17:08;;;;;;;3.10;1.55;;;13.80;99.90;;;;;;5036314;28;20634;-77
2022/07/31 11:19:42;;;;;;;3.25;1.80;;;13.90;99.90;;;;;;5036226;28;20201;-78
2022/07/31 11:22:14;;;;;;;4.47;1.83;;;13.80;99.90;;;;;;5031957;28;20190;-79
2022/07/31 11:24:57;;;;;;;3.85;1.80;;;13.80;99.90;;;;;;5035911;28;20194;-79
2022/07/31 11:27:34;;;;;;;3.30;1.60;;;13.90;99.90;;;;;;5035730;28;20197;-72
2022/07/31 11:30:10;;;;;;;2.47;1.75;;;13.80;99.90;;;;;;5048252;28;20599;-72
2022/07/31 11:32:40;;;;;;;2.55;1.60;;;13.80;99.90;;;;;;5034850;28;20198;-73
2022/07/31 11:35:11;;;;;;;2.30;1.80;;;13.80;99.90;;;;;;5035191;28;20186;-72
2022/07/31 11:37:45;;;;;;;2.60;1.70;;;13.80;99.90;;;;;;5035472;28;20242;-73
2022/07/31 11:40:18;;;;;;;2.75;1.70;;;13.80;99.90;;;;;;5035971;28;20658;-75
2022/07/31 11:42:49;;;;;;;2.88;1.40;;;13.80;99.90;;;;;;5035652;28;20633;-80
2022/07/31 11:45:19;;;;;;;2.15;1.45;;;13.80;99.90;;;;;;5035297;28;20672;-75
2022/07/31 11:47:51;;;;;;;2.45;1.50;;;13.80;99.90;;;;;;5035719;28;20202;-73
2022/07/31 11:50:22;;;;;;;3.60;1.80;;;13.80;99.90;;;;;;5035723;28;20224;-78
2022/07/31 11:53:03;;;;;;;3.92;2.00;;;13.80;99.90;;;;;;5035409;28;20191;-78
2022/07/31 11:55:44;;;;;;;3.42;1.88;;;13.80;99.90;;;;;;5038951;28;20230;-79
2022/07/31 11:58:16;;;;;;;5.35;2.08;;;13.70;99.90;;;;;;5041871;28;20557;-77
2022/07/31 12:00:54;;;;;;;4.07;2.10;;;13.70;99.90;;;;;;5035001;28;20187;-73
2022/07/31 12:03:25;;;;;;;3.70;2.25;;;13.60;99.90;;;;;;5015610;28;20696;-79
2022/07/31 12:05:56;;;;;;;3.15;2.10;;;13.60;99.90;;;;;;5027893;28;20230;-77
2022/07/31 12:08:27;;;;;;;3.20;1.88;;;13.60;99.90;;;;;;5034895;28;20654;-79
2022/07/31 12:11:01;;;;;;;4.20;2.25;;;13.50;99.90;;;;;;5033686;28;20283;-81
2022/07/31 12:13:33;;;;;;;3.35;2.22;;;13.40;99.90;;;;;;5035241;28;20201;-80
2022/07/31 12:16:05;;;;;;;4.15;2.17;;;13.50;99.90;;;;;;5035088;28;20221;-79
2022/07/31 12:18:47;;;;;;;6.55;2.55;;;13.50;99.90;;;;;;5035052;28;20190;-78
2022/07/31 12:21:18;;;;;;;4.75;2.42;;;13.40;99.90;;;;;;5034920;28;20557;-79
2022/07/31 12:23:50;;;;;;;3.85;2.05;;;13.40;99.90;;;;;;5033858;28;20558;-80
2022/07/31 12:26:29;;;;;;;3.38;1.85;;;13.40;99.90;;;;;;5034890;28;20198;-79
2022/07/31 12:29:01;;;;;;;2.90;2.20;;;13.40;99.90;;;;;;5038274;28;20225;-79
2022/07/31 12:31:33;;;;;;;3.90;2.10;;;13.40;99.90;;;;;;5047619;28;20217;-80
2022/07/31 12:34:04;;;;;;;6.18;2.40;;;13.40;99.90;;;;;;5038482;28;20655;-79
2022/07/31 12:36:35;;;;;;;4.30;2.20;;;13.40;99.90;;;;;;5054812;28;20190;-80
2022/07/31 12:39:07;;;;;;;3.53;2.20;;;13.40;99.90;;;;;;5054554;28;20236;-79
2022/07/31 12:41:46;;;;;;;4.30;2.13;;;13.40;99.90;;;;;;5034141;28;20616;-79
2022/07/31 12:44:17;;;;;;;4.05;2.30;;;13.40;99.90;;;;;;5034830;28;20553;-79
2022/07/31 12:46:48;;;;;;;4.03;1.85;;;13.40;99.90;;;;;;5034106;28;20198;-80
2022/07/31 12:49:18;;;;;;;3.50;2.05;;;13.40;99.90;;;;;;5034263;28;20601;-79
2022/07/31 12:51:49;;;;;;;4.75;1.88;;;13.40;99.90;;;;;;5034132;28;20187;-75
2022/07/31 12:54:20;;;;;;;3.47;1.70;;;13.40;99.90;;;;;;5014743;28;20191;-79
2022/07/31 12:56:53;;;;;;;3.95;1.90;;;13.30;99.90;;;;;;5014768;28;20195;-78
2022/07/31 12:59:23;;;;;;;4.75;2.10;;;13.30;99.90;;;;;;5017810;28;20197;-77
2022/07/31 13:01:54;;;;;;;3.40;1.98;;;13.20;99.90;;;;;;5034167;28;20353;-78
2022/07/31 13:04:25;;;;;;;2.63;2.08;;;13.30;99.90;;;;;;5034173;28;20594;-79
2022/07/31 13:06:55;;;;;;;2.30;1.80;;;13.20;99.90;;;;;;5034235;28;20708;-78
2022/07/31 13:09:26;;;;;;;2.67;1.90;;;13.20;99.90;;;;;;5033948;28;20197;-79
2022/07/31 13:11:59;;;;;;;2.33;2.00;;;13.20;99.90;;;;;;5014396;28;20195;-78
2022/07/31 13:14:30;;;;;;;3.30;1.90;;;13.10;99.90;;;;;;5033913;28;20198;-77
2022/07/31 13:17:00;;;;;;;2.15;1.70;;;13.10;99.90;;;;;;5033318;28;20229;-79
2022/07/31 13:19:31;;;;;;;2.90;1.83;;;13.10;99.90;;;;;;5033506;28;20564;-79